Aviation Digital Data Service (ADDS)

Output produced by METARs form (1159 UTC 24 October 2014)
found at http://aviationweather.gov/adds/metars/
 
KALB 241133Z 2412/2512 36004KT P6SM -RA SCT007 OVC015 
     TEMPO 2412/2415 2SM -RA BR OVC007 
     FM241500 35008KT P6SM VCSH OVC020 
     FM241800 32010KT P6SM VCSH OVC035 
     FM242300 32010KT P6SM SCT035 BKN080 
     FM250300 31007KT P6SM SCT080